createdAt,value
2018-05-29T00:00:33.276Z,11.90
2018-05-29T00:03:00.627Z,13.03
2018-05-29T00:05:27.991Z,13.03
2018-05-29T00:07:55.446Z,13.60
2018-05-29T00:10:22.876Z,14.10
2018-05-29T00:12:50.245Z,12.77
2018-05-29T00:15:17.604Z,13.67
2018-05-29T00:17:44.982Z,14.33
2018-05-29T00:20:12.319Z,14.07
2018-05-29T00:22:39.687Z,13.63
2018-05-29T00:25:07.028Z,14.60
2018-05-29T00:27:34.391Z,13.83
2018-05-29T00:30:01.732Z,13.20
2018-05-29T00:32:29.120Z,14.40
2018-05-29T00:34:56.525Z,14.17
2018-05-29T00:37:23.913Z,14.37
2018-05-29T00:39:51.257Z,15.03
2018-05-29T00:42:18.699Z,13.60
2018-05-29T00:44:46.042Z,15.10
2018-05-29T00:47:13.404Z,14.23
2018-05-29T00:49:40.786Z,12.50
2018-05-29T00:52:08.131Z,13.43
2018-05-29T00:54:35.532Z,15.20
2018-05-29T00:57:02.873Z,13.30
2018-05-29T00:59:30.246Z,13.27
2018-05-29T01:01:57.594Z,12.50
2018-05-29T01:04:24.983Z,13.43
2018-05-29T01:06:52.415Z,13.53
2018-05-29T01:09:19.793Z,15.23
2018-05-29T01:11:47.181Z,13.57
2018-05-29T01:14:14.586Z,13.80
2018-05-29T01:16:42.066Z,14.10
2018-05-29T01:19:09.450Z,15.20
2018-05-29T01:21:36.794Z,13.97
2018-05-29T01:24:04.141Z,13.77
2018-05-29T01:26:31.511Z,15.53
2018-05-29T01:28:58.848Z,15.90
2018-05-29T01:31:26.357Z,14.07
2018-05-29T01:33:53.732Z,12.60
2018-05-29T01:36:21.117Z,14.13
2018-05-29T01:38:48.480Z,14.10
2018-05-29T01:41:15.879Z,13.80
2018-05-29T01:43:43.229Z,13.40
2018-05-29T01:46:10.620Z,12.97
2018-05-29T01:48:37.960Z,15.40
2018-05-29T01:51:05.358Z,12.90
2018-05-29T01:53:32.737Z,15.33
2018-05-29T01:56:00.110Z,15.07
2018-05-29T01:58:27.502Z,14.27
2018-05-29T02:00:54.903Z,13.20
2018-05-29T02:03:22.268Z,14.37
2018-05-29T02:05:49.611Z,12.80
2018-05-29T02:08:16.984Z,14.03
2018-05-29T02:10:44.357Z,11.67
2018-05-29T02:13:11.755Z,12.37
2018-05-29T02:15:39.118Z,13.33
2018-05-29T02:18:06.528Z,11.97
2018-05-29T02:20:33.880Z,12.37
2018-05-29T02:23:01.262Z,13.33
2018-05-29T02:25:28.615Z,12.93
2018-05-29T02:27:55.987Z,12.17
2018-05-29T02:30:23.334Z,11.47
2018-05-29T02:32:50.712Z,12.93
2018-05-29T02:35:18.084Z,12.37
2018-05-29T02:37:45.451Z,13.07
2018-05-29T02:40:12.850Z,14.53
2018-05-29T02:42:40.252Z,13.10
2018-05-29T02:45:07.660Z,14.63
2018-05-29T02:47:35.022Z,14.07
2018-05-29T02:50:02.392Z,14.40
2018-05-29T02:52:29.729Z,12.80
2018-05-29T02:54:57.093Z,13.50
2018-05-29T02:57:24.437Z,11.83
2018-05-29T02:59:51.818Z,12.07
2018-05-29T03:02:19.157Z,12.90
2018-05-29T03:04:46.533Z,12.80
2018-05-29T03:07:13.904Z,14.30
2018-05-29T03:09:41.276Z,12.90
2018-05-29T03:12:08.642Z,11.90
2018-05-29T03:14:36.040Z,11.90
2018-05-29T03:17:03.393Z,11.97
2018-05-29T03:19:30.773Z,13.67
2018-05-29T03:21:58.117Z,13.10
2018-05-29T03:24:25.494Z,15.47
2018-05-29T03:26:52.862Z,12.60
2018-05-29T03:29:20.234Z,12.90
2018-05-29T03:31:47.576Z,13.87
2018-05-29T03:34:14.941Z,13.10
2018-05-29T03:36:42.312Z,12.07
2018-05-29T03:39:09.669Z,12.47
2018-05-29T03:41:37.145Z,12.20
2018-05-29T03:44:04.483Z,13.77
2018-05-29T03:46:31.858Z,12.23
2018-05-29T03:48:59.204Z,12.20
2018-05-29T03:51:26.616Z,12.47
2018-05-29T03:53:53.953Z,12.30
2018-05-29T03:56:21.338Z,13.20
2018-05-29T03:58:48.725Z,12.97
2018-05-29T04:01:16.101Z,14.23
2018-05-29T04:03:43.474Z,13.33
2018-05-29T04:06:10.873Z,12.67
2018-05-29T04:08:38.238Z,13.50
2018-05-29T04:11:05.581Z,12.30
2018-05-29T04:13:32.960Z,13.30
2018-05-29T04:16:00.296Z,13.50
2018-05-29T04:18:27.684Z,14.20
2018-05-29T04:20:55.042Z,13.40
2018-05-29T04:23:22.422Z,12.70
2018-05-29T04:25:49.773Z,12.40
2018-05-29T04:28:17.140Z,13.53
2018-05-29T04:30:44.496Z,11.57
2018-05-29T04:33:11.868Z,12.43
2018-05-29T04:35:39.240Z,13.20
2018-05-29T04:38:06.624Z,13.57
2018-05-29T04:40:33.971Z,13.10
2018-05-29T04:43:01.376Z,12.20
2018-05-29T04:45:28.715Z,12.97
2018-05-29T04:47:56.080Z,12.20
2018-05-29T04:50:23.479Z,12.73
2018-05-29T04:52:50.849Z,12.80
2018-05-29T04:55:18.227Z,11.60
2018-05-29T04:57:45.569Z,11.60
2018-05-29T05:00:12.939Z,10.53
2018-05-29T05:02:40.294Z,12.00
2018-05-29T05:05:07.666Z,10.77
2018-05-29T05:07:35.027Z,11.37
2018-05-29T05:10:02.389Z,9.60
2018-05-29T05:12:29.751Z,8.80
2018-05-29T05:14:57.109Z,9.10
2018-05-29T05:17:24.454Z,8.63
2018-05-29T05:19:51.885Z,10.50
2018-05-29T05:22:19.225Z,7.73
2018-05-29T05:24:46.597Z,8.63
2018-05-29T05:27:13.943Z,8.67
2018-05-29T05:29:41.293Z,8.23
2018-05-29T05:32:08.711Z,7.87
2018-05-29T05:34:36.053Z,7.67
2018-05-29T05:37:03.429Z,7.40
2018-05-29T05:39:30.784Z,7.70
2018-05-29T05:41:58.165Z,8.07
2018-05-29T05:44:25.505Z,6.80
2018-05-29T05:46:52.862Z,6.93
2018-05-29T05:49:20.201Z,6.87
2018-05-29T05:51:47.583Z,6.50
2018-05-29T05:54:14.927Z,6.80
2018-05-29T05:56:42.304Z,6.80
2018-05-29T05:59:09.654Z,5.90
2018-05-29T06:01:37.125Z,6.87
2018-05-29T06:04:04.465Z,7.40
2018-05-29T06:06:31.839Z,7.60
2018-05-29T06:08:59.199Z,6.37
2018-05-29T06:11:26.589Z,7.53
2018-05-29T06:13:53.928Z,7.57
2018-05-29T06:16:21.290Z,8.00
2018-05-29T06:18:48.683Z,7.57
2018-05-29T06:21:16.014Z,8.30
2018-05-29T06:23:43.425Z,9.07
2018-05-29T06:26:10.787Z,8.33
2018-05-29T06:28:38.154Z,8.10
2018-05-29T06:31:05.499Z,7.50
2018-05-29T06:33:32.860Z,8.57
2018-05-29T06:36:00.193Z,7.90
2018-05-29T06:38:28.294Z,7.50
2018-05-29T06:40:55.653Z,7.37
2018-05-29T06:43:23.013Z,8.80
2018-05-29T06:45:50.358Z,8.40
2018-05-29T06:48:17.737Z,9.20
2018-05-29T06:50:45.083Z,8.93
2018-05-29T06:53:12.436Z,8.57
2018-05-29T06:55:39.848Z,8.43
2018-05-29T06:58:07.184Z,9.27
2018-05-29T07:00:34.565Z,9.27
2018-05-29T07:03:01.903Z,9.90
2018-05-29T07:05:29.275Z,9.30
2018-05-29T07:07:56.621Z,10.80
2018-05-29T07:10:23.994Z,10.77
2018-05-29T07:12:51.330Z,10.40
2018-05-29T07:15:18.692Z,9.90
2018-05-29T07:17:46.044Z,12.33
2018-05-29T07:20:13.443Z,10.20
2018-05-29T07:22:40.851Z,9.87
2018-05-29T07:25:08.223Z,9.07
2018-05-29T07:27:35.551Z,8.83
2018-05-29T07:30:02.921Z,9.10
2018-05-29T07:32:30.276Z,9.63
2018-05-29T07:34:57.638Z,10.63
2018-05-29T07:37:24.984Z,9.67
2018-05-29T07:39:52.357Z,9.67
2018-05-29T07:42:19.692Z,9.57
2018-05-29T07:44:47.062Z,9.57
2018-05-29T07:47:14.406Z,8.83
2018-05-29T07:49:41.786Z,10.00
2018-05-29T07:52:09.148Z,10.00
2018-05-29T07:54:36.496Z,10.10
2018-05-29T07:57:03.866Z,9.47
2018-05-29T07:59:31.214Z,9.80
2018-05-29T08:01:58.577Z,8.70
2018-05-29T08:04:25.922Z,9.97
2018-05-29T08:06:53.298Z,9.60
2018-05-29T08:09:20.667Z,9.30
2018-05-29T08:11:48.032Z,7.93
2018-05-29T08:14:15.372Z,8.03
2018-05-29T08:16:42.879Z,8.57
2018-05-29T08:19:10.220Z,8.37
2018-05-29T08:21:37.584Z,8.27
2018-05-29T08:24:04.913Z,8.67
2018-05-29T08:26:32.274Z,9.30
2018-05-29T08:28:59.612Z,7.17
2018-05-29T08:31:26.973Z,8.40
2018-05-29T08:33:54.314Z,9.47
2018-05-29T08:36:21.696Z,9.33
2018-05-29T08:38:49.038Z,8.63
2018-05-29T08:41:16.440Z,7.90
2018-05-29T08:43:43.889Z,8.50
2018-05-29T08:46:11.263Z,8.37
2018-05-29T08:48:38.695Z,9.10
2018-05-29T08:51:06.078Z,10.60
2018-05-29T08:53:33.415Z,9.10
2018-05-29T08:56:00.750Z,8.80
2018-05-29T08:58:28.119Z,10.57
2018-05-29T09:00:55.458Z,10.20
2018-05-29T09:03:22.832Z,8.93
2018-05-29T09:05:50.170Z,9.10
2018-05-29T09:08:17.558Z,8.90
2018-05-29T09:10:44.907Z,8.83
2018-05-29T09:13:12.274Z,7.90
2018-05-29T09:15:39.625Z,9.50
2018-05-29T09:18:06.993Z,7.87
2018-05-29T09:20:34.337Z,9.63
2018-05-29T09:23:01.706Z,8.67
2018-05-29T09:25:29.049Z,9.87
2018-05-29T09:27:56.408Z,8.80
2018-05-29T09:30:23.749Z,9.73
2018-05-29T09:32:51.137Z,8.03
2018-05-29T09:35:18.512Z,8.73
2018-05-29T09:37:45.881Z,9.67
2018-05-29T09:40:13.269Z,8.57
2018-05-29T09:42:40.678Z,7.90
2018-05-29T09:45:08.142Z,7.70
2018-05-29T09:47:35.513Z,7.97
2018-05-29T09:50:02.851Z,7.97
2018-05-29T09:52:30.223Z,9.17
2018-05-29T09:54:57.566Z,6.83
2018-05-29T09:57:24.943Z,7.60
2018-05-29T09:59:52.286Z,7.60
2018-05-29T10:02:19.625Z,7.63
2018-05-29T10:04:46.994Z,7.73
2018-05-29T10:07:14.355Z,7.20
2018-05-29T10:09:41.869Z,8.53
2018-05-29T10:12:09.297Z,7.87
2018-05-29T10:14:36.673Z,7.77
2018-05-29T10:17:04.052Z,8.00
2018-05-29T10:19:31.440Z,6.93
2018-05-29T10:21:58.798Z,8.17
2018-05-29T10:24:26.160Z,7.47
2018-05-29T10:26:53.503Z,7.30
2018-05-29T10:29:20.865Z,7.10
2018-05-29T10:31:48.206Z,6.30
2018-05-29T10:34:15.570Z,6.90
2018-05-29T10:36:42.904Z,7.87
2018-05-29T10:39:10.333Z,8.57
2018-05-29T10:41:37.684Z,7.83
2018-05-29T10:44:05.082Z,7.30
2018-05-29T10:46:32.425Z,7.67
2018-05-29T10:48:59.780Z,8.00
2018-05-29T10:51:27.166Z,8.37
2018-05-29T10:53:54.534Z,7.80
2018-05-29T10:56:21.872Z,9.83
2018-05-29T10:58:49.250Z,8.40
2018-05-29T11:01:16.589Z,5.73
2018-05-29T11:03:43.931Z,5.93
2018-05-29T11:06:11.315Z,7.07
2018-05-29T11:08:38.662Z,6.30
2018-05-29T11:11:06.347Z,6.50
2018-05-29T11:13:33.685Z,6.30
2018-05-29T11:16:01.052Z,5.30
2018-05-29T11:18:28.378Z,6.00
2018-05-29T11:20:55.747Z,5.03
2018-05-29T11:23:23.087Z,7.03
2018-05-29T11:25:50.446Z,7.33
2018-05-29T11:28:17.787Z,6.00
2018-05-29T11:30:45.148Z,6.20
2018-05-29T11:33:12.580Z,5.30
2018-05-29T11:35:39.965Z,5.90
2018-05-29T11:38:07.312Z,5.87
2018-05-29T11:40:34.685Z,5.53
2018-05-29T11:43:02.026Z,5.80
2018-05-29T11:45:29.391Z,5.30
2018-05-29T11:47:56.722Z,5.33
2018-05-29T11:50:24.096Z,4.97
2018-05-29T11:52:51.431Z,5.47
2018-05-29T11:55:18.820Z,4.80
2018-05-29T11:57:46.154Z,5.00
2018-05-29T12:00:13.506Z,4.23
2018-05-29T12:02:40.939Z,3.90
2018-05-29T12:05:08.279Z,3.80
2018-05-29T12:07:35.665Z,3.20
2018-05-29T12:10:03.013Z,4.20
2018-05-29T12:12:30.362Z,3.97
2018-05-29T12:14:57.690Z,4.70
2018-05-29T12:17:25.055Z,4.30
2018-05-29T12:19:52.401Z,4.60
2018-05-29T12:22:19.838Z,3.60
2018-05-29T12:24:47.175Z,5.70
2018-05-29T12:27:14.556Z,5.97
2018-05-29T12:29:41.904Z,4.40
2018-05-29T12:32:09.276Z,4.53
2018-05-29T12:34:36.630Z,4.00
2018-05-29T12:37:03.987Z,5.10
2018-05-29T12:39:31.330Z,4.07
2018-05-29T12:41:58.697Z,4.00
2018-05-29T12:44:26.031Z,4.67
2018-05-29T12:46:53.397Z,4.63
2018-05-29T12:49:20.729Z,4.47
2018-05-29T12:51:48.106Z,4.30
2018-05-29T12:54:15.469Z,4.37
2018-05-29T12:56:42.852Z,4.60
2018-05-29T12:59:10.188Z,3.60
2018-05-29T13:01:37.570Z,4.50
2018-05-29T13:04:04.901Z,4.07
2018-05-29T13:06:32.270Z,3.63
2018-05-29T13:08:59.604Z,4.43
2018-05-29T13:11:26.971Z,3.60
2018-05-29T13:13:54.328Z,4.07
2018-05-29T13:16:21.657Z,3.70
2018-05-29T13:18:49.017Z,3.73
2018-05-29T13:21:16.345Z,3.80
2018-05-29T13:23:43.724Z,3.37
2018-05-29T13:26:11.057Z,4.00
2018-05-29T13:28:38.438Z,3.37
2018-05-29T13:31:05.803Z,3.40
2018-05-29T13:33:33.162Z,3.17
2018-05-29T13:36:00.503Z,3.30
2018-05-29T13:38:27.867Z,3.30
2018-05-29T13:40:55.199Z,3.80
2018-05-29T13:43:22.556Z,2.60
2018-05-29T13:45:49.894Z,3.07
2018-05-29T13:48:17.257Z,3.73
2018-05-29T13:50:44.599Z,3.70
2018-05-29T13:53:11.924Z,3.57
2018-05-29T13:55:39.293Z,4.20
2018-05-29T13:58:06.625Z,3.10
2018-05-29T14:00:33.990Z,4.10
2018-05-29T14:03:01.323Z,3.30
2018-05-29T14:05:28.695Z,3.70
2018-05-29T14:07:56.025Z,3.80
2018-05-29T14:10:23.389Z,3.87
2018-05-29T14:12:50.727Z,3.50
2018-05-29T14:15:18.084Z,3.63
2018-05-29T14:17:45.436Z,3.63
2018-05-29T14:20:12.804Z,4.27
2018-05-29T14:22:40.146Z,3.70
2018-05-29T14:25:07.503Z,3.40
2018-05-29T14:27:34.836Z,3.50
2018-05-29T14:30:02.205Z,2.93
2018-05-29T14:32:29.535Z,3.47
2018-05-29T14:34:56.889Z,3.70
2018-05-29T14:37:24.219Z,4.00
2018-05-29T14:39:51.586Z,3.40
2018-05-29T14:42:18.911Z,3.60
2018-05-29T14:44:46.287Z,3.00
2018-05-29T14:47:13.635Z,3.60
2018-05-29T14:49:40.997Z,3.30
2018-05-29T14:52:08.321Z,4.30
2018-05-29T14:54:35.687Z,4.03
2018-05-29T14:57:03.015Z,4.00
2018-05-29T14:59:30.386Z,3.57
2018-05-29T15:01:57.721Z,3.90
2018-05-29T15:04:25.045Z,3.63
2018-05-29T15:06:52.419Z,3.50
2018-05-29T15:09:19.747Z,4.33
2018-05-29T15:11:47.205Z,3.57
2018-05-29T15:14:14.566Z,4.23
2018-05-29T15:16:41.928Z,4.07
2018-05-29T15:19:09.256Z,4.10
2018-05-29T15:21:36.629Z,4.50
2018-05-29T15:24:03.962Z,4.13
2018-05-29T15:26:31.323Z,4.50
2018-05-29T15:28:58.648Z,4.47
2018-05-29T15:31:26.005Z,3.73
2018-05-29T15:33:53.340Z,3.67
2018-05-29T15:36:20.699Z,3.90
2018-05-29T15:38:48.096Z,4.07
2018-05-29T15:41:15.480Z,3.73
2018-05-29T15:43:42.810Z,3.53
2018-05-29T15:46:10.176Z,3.47
2018-05-29T15:48:37.513Z,4.30
2018-05-29T15:51:04.873Z,4.37
2018-05-29T15:53:32.196Z,3.70
2018-05-29T15:55:59.560Z,4.87
2018-05-29T15:58:26.898Z,5.17
2018-05-29T16:00:54.260Z,4.50
2018-05-29T16:03:21.598Z,4.13
2018-05-29T16:05:48.955Z,4.23
2018-05-29T16:08:16.309Z,3.70
2018-05-29T16:10:43.661Z,4.17
2018-05-29T16:13:10.993Z,5.17
2018-05-29T16:15:38.323Z,4.43
2018-05-29T16:18:05.694Z,4.00
2018-05-29T16:20:33.030Z,3.97
2018-05-29T16:23:00.389Z,4.80
2018-05-29T16:25:27.749Z,4.60
2018-05-29T16:27:55.115Z,4.40
2018-05-29T16:30:22.451Z,4.07
2018-05-29T16:32:49.813Z,5.10
2018-05-29T16:35:17.169Z,4.40
2018-05-29T16:37:44.533Z,4.50
2018-05-29T16:40:11.874Z,4.90
2018-05-29T16:42:39.243Z,4.23
2018-05-29T16:45:06.568Z,4.07
2018-05-29T16:47:33.933Z,3.50
2018-05-29T16:50:01.272Z,4.10
2018-05-29T16:52:28.639Z,4.23
2018-05-29T16:54:55.977Z,4.77
2018-05-29T16:57:23.346Z,4.80
2018-05-29T16:59:50.673Z,4.87
2018-05-29T17:02:18.055Z,4.17
2018-05-29T17:04:45.439Z,5.50
2018-05-29T17:07:12.853Z,3.80
2018-05-29T17:09:40.291Z,5.57
2018-05-29T17:12:07.661Z,4.43
2018-05-29T17:14:34.984Z,4.20
2018-05-29T17:17:02.342Z,3.87
2018-05-29T17:19:29.681Z,4.50
2018-05-29T17:21:57.058Z,4.50
2018-05-29T17:24:24.387Z,4.10
2018-05-29T17:26:51.752Z,3.93
2018-05-29T17:29:19.107Z,4.40
2018-05-29T17:31:46.447Z,4.40
2018-05-29T17:34:13.803Z,4.47
2018-05-29T17:36:41.136Z,4.10
2018-05-29T17:39:08.503Z,5.20
2018-05-29T17:41:35.838Z,4.43
2018-05-29T17:44:03.193Z,3.80
2018-05-29T17:46:30.527Z,4.13
2018-05-29T17:48:57.889Z,3.97
2018-05-29T17:51:25.221Z,5.00
2018-05-29T17:53:52.584Z,4.10
2018-05-29T17:56:19.977Z,4.27
2018-05-29T17:58:47.348Z,4.97
2018-05-29T18:01:14.679Z,4.17
2018-05-29T18:03:42.049Z,16.33
2018-05-29T18:06:09.394Z,26.23
2018-05-29T18:08:36.754Z,5.30
2018-05-29T18:11:04.122Z,4.57
2018-05-29T18:13:31.477Z,6.70
2018-05-29T18:15:58.812Z,4.40
2018-05-29T18:18:26.177Z,4.77
2018-05-29T18:20:53.579Z,4.60
2018-05-29T18:23:20.914Z,4.73
2018-05-29T18:25:48.263Z,4.93
2018-05-29T18:28:15.593Z,4.50
2018-05-29T18:30:42.967Z,4.73
2018-05-29T18:33:10.305Z,4.10
2018-05-29T18:35:37.672Z,4.20
2018-05-29T18:38:05.008Z,5.23
2018-05-29T18:40:32.364Z,4.30
2018-05-29T18:42:59.686Z,3.50
2018-05-29T18:45:27.069Z,4.23
2018-05-29T18:47:54.407Z,4.37
2018-05-29T18:50:21.782Z,3.60
2018-05-29T18:52:49.147Z,4.03
2018-05-29T18:55:16.511Z,5.00
2018-05-29T18:57:43.839Z,4.27
2018-05-29T19:00:11.197Z,5.90
2018-05-29T19:02:38.533Z,4.37
2018-05-29T19:05:05.885Z,4.80
2018-05-29T19:07:33.253Z,4.60
2018-05-29T19:10:00.612Z,5.00
2018-05-29T19:12:27.953Z,4.93
2018-05-29T19:14:55.309Z,4.33
2018-05-29T19:17:22.632Z,4.47
2018-05-29T19:19:50.012Z,5.80
2018-05-29T19:22:17.347Z,4.00
2018-05-29T19:24:44.706Z,4.20
2018-05-29T19:27:12.033Z,4.47
2018-05-29T19:29:39.390Z,4.90
2018-05-29T19:32:06.726Z,5.40
2018-05-29T19:34:34.090Z,5.67
2018-05-29T19:37:01.421Z,5.70
2018-05-29T19:39:28.777Z,4.57
2018-05-29T19:41:56.107Z,4.30
2018-05-29T19:44:23.475Z,4.20
2018-05-29T19:46:50.813Z,4.23
2018-05-29T19:49:18.176Z,4.80
2018-05-29T19:51:45.502Z,4.53
2018-05-29T19:54:12.877Z,4.70
2018-05-29T19:56:40.211Z,4.70
2018-05-29T19:59:07.542Z,4.60
2018-05-29T20:01:34.908Z,4.20
2018-05-29T20:04:02.245Z,5.30
2018-05-29T20:06:29.598Z,4.90
2018-05-29T20:08:56.924Z,4.60
2018-05-29T20:11:24.277Z,4.87
2018-05-29T20:13:51.634Z,4.87
2018-05-29T20:16:19.001Z,5.03
2018-05-29T20:18:46.339Z,5.50
2018-05-29T20:21:13.700Z,5.07
2018-05-29T20:23:41.033Z,5.00
2018-05-29T20:26:08.405Z,5.20
2018-05-29T20:28:35.751Z,5.10
2018-05-29T20:31:03.078Z,5.20
2018-05-29T20:33:30.459Z,6.93
2018-05-29T20:35:57.793Z,5.00
2018-05-29T20:38:25.143Z,5.20
2018-05-29T20:40:52.493Z,5.10
2018-05-29T20:43:19.933Z,5.73
2018-05-29T20:45:47.317Z,5.90
2018-05-29T20:48:14.696Z,5.33
2018-05-29T20:50:42.029Z,6.13
2018-05-29T20:53:09.387Z,6.33
2018-05-29T20:55:36.726Z,6.10
2018-05-29T20:58:04.087Z,5.30
2018-05-29T21:00:31.421Z,5.70
2018-05-29T21:02:58.786Z,6.07
2018-05-29T21:05:26.999Z,6.10
2018-05-29T21:07:54.355Z,6.27
2018-05-29T21:10:21.748Z,5.67
2018-05-29T21:12:49.095Z,7.27
2018-05-29T21:15:16.471Z,6.73
2018-05-29T21:17:43.792Z,5.87
2018-05-29T21:20:11.149Z,5.60
2018-05-29T21:22:38.491Z,5.80
2018-05-29T21:25:05.850Z,5.53
2018-05-29T21:27:33.184Z,6.57
2018-05-29T21:30:00.553Z,5.90
2018-05-29T21:32:27.884Z,5.60
2018-05-29T21:34:55.240Z,6.07
2018-05-29T21:37:22.602Z,5.30
2018-05-29T21:39:49.966Z,5.00
2018-05-29T21:42:17.300Z,6.30
2018-05-29T21:44:44.679Z,5.83
2018-05-29T21:47:12.009Z,5.80
2018-05-29T21:49:39.373Z,5.40
2018-05-29T21:52:06.733Z,5.33
2018-05-29T21:54:34.074Z,5.70
2018-05-29T21:57:01.437Z,5.93
2018-05-29T21:59:28.772Z,6.73
2018-05-29T22:01:56.145Z,5.43
2018-05-29T22:04:23.498Z,6.67
2018-05-29T22:06:50.864Z,6.00
2018-05-29T22:09:18.197Z,7.10
2018-05-29T22:11:45.564Z,7.27
2018-05-29T22:14:12.898Z,7.43
2018-05-29T22:16:40.270Z,6.80
2018-05-29T22:19:07.617Z,6.80
2018-05-29T22:21:34.949Z,7.43
2018-05-29T22:24:02.319Z,7.50
2018-05-29T22:26:29.652Z,6.10
2018-05-29T22:28:57.026Z,6.80
2018-05-29T22:31:24.377Z,6.47
2018-05-29T22:33:51.742Z,6.43
2018-05-29T22:36:19.074Z,7.30
2018-05-29T22:38:46.432Z,6.53
2018-05-29T22:41:13.761Z,6.20
2018-05-29T22:43:41.124Z,7.57
2018-05-29T22:46:08.465Z,6.97
2018-05-29T22:48:35.819Z,7.40
2018-05-29T22:51:03.148Z,6.90
2018-05-29T22:53:30.515Z,6.43
2018-05-29T22:55:57.848Z,5.90
2018-05-29T22:58:25.233Z,6.50
2018-05-29T23:00:52.648Z,6.83
2018-05-29T23:03:20.076Z,7.03
2018-05-29T23:05:47.409Z,5.70
2018-05-29T23:08:14.781Z,7.40
2018-05-29T23:10:42.116Z,7.50
2018-05-29T23:13:09.483Z,7.40
2018-05-29T23:15:36.814Z,7.00
2018-05-29T23:18:04.156Z,7.33
2018-05-29T23:20:31.524Z,6.73
2018-05-29T23:22:58.877Z,7.07
2018-05-29T23:25:26.255Z,6.47
2018-05-29T23:27:53.602Z,6.93
2018-05-29T23:30:20.968Z,6.50
2018-05-29T23:32:48.299Z,6.13
2018-05-29T23:35:15.656Z,7.57
2018-05-29T23:37:43.026Z,6.67
2018-05-29T23:40:10.396Z,6.20
2018-05-29T23:42:37.735Z,7.03
2018-05-29T23:45:05.106Z,6.83
2018-05-29T23:47:32.488Z,6.33
2018-05-29T23:49:59.853Z,6.70
2018-05-29T23:52:27.221Z,6.20
2018-05-29T23:54:54.606Z,6.80
2018-05-29T23:57:21.939Z,7.23
2018-05-29T23:59:49.306Z,8.03
